GZI weather

Ghazni Airport
Ghazni, Ghazni Province, Afghanistan

Public forecast

Using degrees Celsius for public forecast. Weather courtesy of forecast.io.

Closest aviation weather report (METAR) to Ghazni Airport

Closest report is Hamid Karzai International Airport, 73.8 nm (136.6 km) NNE. Retrieved 2020/07/08 23:50 UTC (1 hour ago):

OAKB 082350Z VRB03KT CAVOK 19/09 Q1013 RMK A2993 BLU BLU

Closest aviation forecast (TAF) to Ghazni Airport

Closest forecast is Hamid Karzai International Airport, 73.8 nm (136.6 km) NNE. Retrieved 2020-07-09 00:05 UTC (53 minutes ago):

TAF OAKB 082305Z 0900/0924 VRB02KT CAVOK BECMG 0907/0909 01012KT SCT100 TEMPO 0912/0918 01015G25KT BECMG 0919/0921 32006KT